Time;durP1;ratioP1;P1;durP2;ratioP2;P2;SDS_P1;SDS_P2;PMS_P1;PMS_P2;Temp;Humidity;BMP_temperature;BMP_pressure;BME280_temperature;BME280_humidity;BME280_pressure;Samples;Min_cycle;Max_cycle;Signal;HPM_P1;HPM_P2
2023/06/27 00:01:41;;;;;;;6.97;2.60;;;14.40;93.30;;;;;;5016427;28;20619;-72
2023/06/27 00:04:07;;;;;;;10.07;2.80;;;14.50;92.00;;;;;;4990025;28;20792;-71
2023/06/27 00:06:37;;;;;;;11.93;2.70;;;14.50;91.20;;;;;;5009275;28;20029;-71
2023/06/27 00:09:06;;;;;;;6.22;2.58;;;14.50;91.90;;;;;;5010993;28;20427;-71
2023/06/27 00:11:32;;;;;;;5.63;2.17;;;14.50;91.80;;;;;;5013981;28;20034;-71
2023/06/27 00:13:58;;;;;;;7.07;2.47;;;14.50;93.10;;;;;;5013859;28;21125;-72
2023/06/27 00:16:32;;;;;;;9.45;2.42;;;14.40;93.80;;;;;;5012456;28;20330;-72
2023/06/27 00:19:02;;;;;;;6.35;2.40;;;14.30;94.00;;;;;;5015242;28;20319;-73
2023/06/27 00:21:29;;;;;;;7.68;2.55;;;14.20;94.30;;;;;;5013609;28;20061;-72
2023/06/27 00:23:58;;;;;;;6.25;2.42;;;14.20;94.50;;;;;;5013638;28;20030;-72
2023/06/27 00:26:27;;;;;;;6.35;2.65;;;14.10;94.60;;;;;;5012902;28;20026;-72
2023/06/27 00:28:53;;;;;;;7.53;2.65;;;14.00;94.70;;;;;;5013335;28;20026;-73
2023/06/27 00:31:19;;;;;;;5.93;2.70;;;14.00;94.60;;;;;;5006775;28;20108;-73
2023/06/27 00:33:45;;;;;;;5.63;2.35;;;13.90;94.60;;;;;;5014609;28;20058;-73
2023/06/27 00:36:11;;;;;;;6.68;2.75;;;13.90;94.80;;;;;;5014375;28;20029;-72
2023/06/27 00:38:36;;;;;;;7.35;2.55;;;13.80;95.10;;;;;;5015442;28;20030;-73
2023/06/27 00:41:02;;;;;;;7.50;2.38;;;13.80;95.20;;;;;;5015347;28;20117;-72
2023/06/27 00:43:28;;;;;;;8.98;3.03;;;13.80;95.20;;;;;;5014469;28;20108;-73
2023/06/27 00:45:54;;;;;;;7.63;2.85;;;13.80;95.30;;;;;;4997504;28;20026;-72
2023/06/27 00:48:20;;;;;;;7.13;2.70;;;13.80;95.20;;;;;;5014204;28;20030;-73
2023/06/27 00:50:46;;;;;;;7.05;2.58;;;13.80;95.30;;;;;;5016518;28;20108;-72
2023/06/27 00:53:14;;;;;;;9.32;2.80;;;13.90;95.00;;;;;;5014374;28;20040;-73
2023/06/27 00:55:40;;;;;;;7.25;2.53;;;13.90;94.70;;;;;;5016040;28;20322;-72
2023/06/27 00:58:08;;;;;;;6.97;2.53;;;13.90;94.80;;;;;;5018267;28;20315;-73
2023/06/27 01:00:34;;;;;;;7.72;2.42;;;13.90;94.90;;;;;;5016850;28;20026;-72
2023/06/27 01:02:59;;;;;;;8.63;2.88;;;13.80;94.80;;;;;;5008470;28;20033;-72
2023/06/27 01:05:25;;;;;;;8.20;2.75;;;13.80;95.20;;;;;;5016440;28;20101;-73
2023/06/27 01:08:09;;;;;;;7.18;2.63;;;13.70;95.20;;;;;;5018834;28;20374;-72
2023/06/27 01:10:46;;;;;;;10.02;2.90;;;13.70;95.30;;;;;;5015361;28;20030;-75
2023/06/27 01:13:23;;;;;;;5.93;2.70;;;13.60;95.40;;;;;;5017217;28;20030;-74
2023/06/27 01:15:50;;;;;;;10.13;3.28;;;13.60;95.50;;;;;;5015298;28;20026;-72
2023/06/27 01:18:20;;;;;;;7.22;3.08;;;13.60;95.60;;;;;;5017034;28;20037;-72
2023/06/27 01:20:47;;;;;;;6.07;2.53;;;13.50;95.70;;;;;;5012421;28;20451;-72
2023/06/27 01:23:26;;;;;;;7.45;3.10;;;13.50;95.70;;;;;;5014957;28;20026;-72
2023/06/27 01:26:04;;;;;;;8.30;2.67;;;13.50;95.80;;;;;;5016815;28;20034;-72
2023/06/27 01:28:32;;;;;;;7.95;2.90;;;13.50;95.80;;;;;;5015943;28;20431;-73
2023/06/27 01:31:01;;;;;;;6.32;2.88;;;13.50;95.70;;;;;;5014135;28;20383;-72
2023/06/27 01:33:44;;;;;;;6.40;2.70;;;13.50;95.60;;;;;;5017322;28;20104;-73
2023/06/27 01:36:20;;;;;;;7.13;2.65;;;13.60;95.70;;;;;;5015360;28;20022;-72
2023/06/27 01:39:02;;;;;;;8.85;2.70;;;13.60;95.70;;;;;;5018482;28;20426;-73
2023/06/27 01:41:32;;;;;;;9.82;3.30;;;13.50;95.60;;;;;;5015917;28;20474;-72
2023/06/27 01:44:02;;;;;;;10.50;2.90;;;13.60;95.70;;;;;;5007231;28;20112;-72
2023/06/27 01:46:28;;;;;;;10.38;2.80;;;13.70;94.10;;;;;;5016729;28;20030;-72
2023/06/27 01:48:55;;;;;;;7.55;2.63;;;13.80;95.30;;;;;;5017210;28;20026;-72
2023/06/27 01:51:20;;;;;;;6.80;2.67;;;13.80;95.40;;;;;;5016527;28;20423;-73
2023/06/27 01:53:46;;;;;;;6.18;2.35;;;13.80;95.30;;;;;;5016281;28;20034;-72
2023/06/27 01:56:12;;;;;;;8.75;2.97;;;13.80;95.30;;;;;;5017843;28;20034;-72
2023/06/27 01:58:39;;;;;;;8.10;2.90;;;13.70;95.30;;;;;;5014175;28;20350;-72
2023/06/27 02:01:04;;;;;;;7.72;2.85;;;13.70;95.50;;;;;;5014335;28;20025;-72
2023/06/27 02:03:30;;;;;;;12.30;3.00;;;13.80;95.30;;;;;;5013851;28;20032;-72
2023/06/27 02:05:55;;;;;;;11.98;2.78;;;13.80;95.30;;;;;;5014753;28;20044;-72
2023/06/27 02:08:21;;;;;;;8.82;2.90;;;13.90;95.20;;;;;;5015595;28;20029;-73
2023/06/27 02:10:46;;;;;;;13.10;3.67;;;13.90;95.30;;;;;;5017020;28;20037;-74
2023/06/27 02:13:12;;;;;;;6.10;2.40;;;13.90;95.30;;;;;;5016719;28;20088;-72
2023/06/27 02:15:38;;;;;;;6.20;2.42;;;14.00;94.90;;;;;;5016630;28;20095;-72
2023/06/27 02:18:04;;;;;;;9.52;3.10;;;14.10;95.40;;;;;;5017060;28;20037;-72
2023/06/27 02:20:30;;;;;;;6.10;2.50;;;14.10;95.40;;;;;;5016733;28;20089;-73
2023/06/27 02:22:56;;;;;;;8.30;2.55;;;14.10;95.50;;;;;;4996773;28;20022;-72
2023/06/27 02:25:21;;;;;;;6.78;2.45;;;14.20;95.30;;;;;;5005645;28;20660;-72
2023/06/27 02:27:47;;;;;;;8.05;2.50;;;14.20;95.20;;;;;;5017509;28;20026;-73
2023/06/27 02:30:12;;;;;;;9.85;2.72;;;14.20;95.20;;;;;;5017357;28;20021;-73
2023/06/27 02:32:38;;;;;;;6.10;2.60;;;14.30;94.90;;;;;;5015381;28;20026;-73
2023/06/27 02:35:04;;;;;;;7.63;2.55;;;14.30;95.20;;;;;;5016543;28;20054;-72
2023/06/27 02:37:29;;;;;;;5.13;2.58;;;14.30;95.20;;;;;;5014240;28;20041;-72
2023/06/27 02:39:56;;;;;;;9.38;3.05;;;14.30;94.90;;;;;;5015621;28;20034;-73
2023/06/27 02:42:22;;;;;;;6.68;2.90;;;14.20;94.70;;;;;;4999633;28;20837;-73
2023/06/27 02:44:48;;;;;;;6.05;2.55;;;14.30;94.70;;;;;;5016333;28;20030;-72
2023/06/27 02:47:14;;;;;;;10.07;2.80;;;14.30;94.20;;;;;;5012580;28;20057;-72
2023/06/27 02:49:40;;;;;;;7.45;2.60;;;14.40;93.80;;;;;;5013670;28;20054;-73
2023/06/27 02:52:06;;;;;;;6.00;2.42;;;14.40;93.30;;;;;;5013044;28;20108;-73
2023/06/27 02:54:31;;;;;;;6.20;2.38;;;14.50;93.50;;;;;;5016057;28;20037;-73
2023/06/27 02:56:57;;;;;;;6.72;2.38;;;14.50;93.90;;;;;;4997260;28;20034;-73
2023/06/27 02:59:22;;;;;;;7.38;2.92;;;14.60;94.10;;;;;;5014340;28;20029;-72
2023/06/27 03:01:48;;;;;;;7.93;2.92;;;14.50;94.50;;;;;;5014707;28;20113;-72
2023/06/27 03:04:20;;;;;;;9.93;2.63;;;14.50;94.60;;;;;;5012743;28;20058;-72
2023/06/27 03:06:46;;;;;;;8.45;2.78;;;14.40;94.90;;;;;;5010739;28;20033;-73
2023/06/27 03:09:14;;;;;;;7.57;3.03;;;14.40;95.30;;;;;;5014468;28;20026;-73
2023/06/27 03:11:40;;;;;;;7.72;2.90;;;14.30;95.10;;;;;;4987231;28;20022;-73
2023/06/27 03:14:05;;;;;;;6.85;2.50;;;14.30;95.40;;;;;;5014836;28;20065;-73
2023/06/27 03:16:31;;;;;;;6.78;2.83;;;14.30;95.50;;;;;;5012299;28;20036;-73
2023/06/27 03:18:56;;;;;;;6.53;2.90;;;14.30;95.40;;;;;;5013877;28;20434;-72
2023/06/27 03:21:22;;;;;;;6.25;2.65;;;14.30;95.40;;;;;;5012794;28;20045;-73
2023/06/27 03:23:48;;;;;;;7.28;2.95;;;14.30;95.20;;;;;;5014763;28;20091;-73
2023/06/27 03:26:13;;;;;;;6.45;2.60;;;14.30;95.30;;;;;;5015703;28;20144;-72
2023/06/27 03:28:40;;;;;;;9.52;3.15;;;14.30;95.10;;;;;;5014344;28;20038;-73
2023/06/27 03:31:05;;;;;;;10.00;3.22;;;14.40;94.90;;;;;;5013068;28;20026;-73
2023/06/27 03:33:31;;;;;;;5.63;2.60;;;14.40;95.30;;;;;;5012886;28;20293;-73
2023/06/27 03:35:57;;;;;;;8.88;2.70;;;14.40;95.40;;;;;;4995543;28;20037;-73
2023/06/27 03:38:23;;;;;;;5.57;2.47;;;14.40;95.30;;;;;;5009454;28;20359;-73
2023/06/27 03:40:48;;;;;;;9.15;2.83;;;14.40;95.40;;;;;;5014166;28;20049;-73
2023/06/27 03:43:14;;;;;;;6.13;2.50;;;14.40;95.30;;;;;;5010095;28;20033;-73
2023/06/27 03:45:40;;;;;;;5.03;2.67;;;14.40;95.50;;;;;;5005218;28;20183;-73
2023/06/27 03:48:07;;;;;;;10.90;3.20;;;14.40;95.50;;;;;;4997041;28;20030;-73
2023/06/27 03:50:32;;;;;;;9.48;3.83;;;14.40;95.60;;;;;;5013954;28;20148;-73
2023/06/27 03:53:00;;;;;;;6.78;2.53;;;14.40;95.50;;;;;;5011549;28;20120;-73
2023/06/27 03:55:26;;;;;;;8.63;2.45;;;14.30;95.60;;;;;;5012020;28;20025;-73
2023/06/27 03:57:51;;;;;;;9.30;2.83;;;14.40;95.50;;;;;;5011789;28;20153;-73
2023/06/27 04:00:19;;;;;;;7.32;2.65;;;14.40;95.60;;;;;;5010155;28;20030;-73
2023/06/27 04:02:45;;;;;;;6.85;3.00;;;14.40;95.20;;;;;;5012398;28;20045;-73
2023/06/27 04:05:10;;;;;;;9.50;2.80;;;14.40;95.50;;;;;;5012503;28;20062;-73
2023/06/27 04:07:36;;;;;;;7.40;2.90;;;14.40;95.50;;;;;;5012013;28;20042;-73
2023/06/27 04:10:02;;;;;;;6.63;2.95;;;14.40;95.40;;;;;;5012693;28;20643;-73
2023/06/27 04:12:28;;;;;;;9.57;2.83;;;14.40;95.60;;;;;;5012165;28;20029;-73
2023/06/27 04:14:53;;;;;;;6.53;2.50;;;14.50;95.60;;;;;;4994085;28;20108;-73
2023/06/27 04:17:19;;;;;;;7.82;2.83;;;14.50;95.70;;;;;;5014131;28;20040;-73
2023/06/27 04:19:44;;;;;;;10.05;2.60;;;14.50;95.40;;;;;;5013857;28;20415;-73
2023/06/27 04:22:10;;;;;;;11.07;2.90;;;14.50;95.50;;;;;;5010792;28;20488;-73
2023/06/27 04:24:35;;;;;;;6.10;2.65;;;14.50;95.70;;;;;;5014578;28;20030;-73
2023/06/27 04:27:01;;;;;;;5.95;2.70;;;14.50;95.40;;;;;;5011251;28;20034;-73
2023/06/27 04:29:26;;;;;;;7.70;3.22;;;14.50;94.80;;;;;;5016667;28;20038;-73
2023/06/27 04:31:52;;;;;;;7.60;2.75;;;14.60;94.70;;;;;;5015375;28;20038;-73
2023/06/27 04:34:17;;;;;;;9.73;2.80;;;14.70;94.10;;;;;;5018181;28;20021;-73
2023/06/27 04:36:43;;;;;;;7.40;2.83;;;14.80;93.80;;;;;;5015902;28;20443;-73
2023/06/27 04:39:09;;;;;;;10.60;2.60;;;14.80;94.10;;;;;;5011725;28;20024;-73
2023/06/27 04:41:35;;;;;;;6.72;2.78;;;14.90;94.20;;;;;;4992267;28;20427;-73
2023/06/27 04:44:00;;;;;;;8.48;2.88;;;15.00;94.40;;;;;;4992484;28;20030;-73
2023/06/27 04:46:28;;;;;;;12.57;3.33;;;15.00;94.50;;;;;;4997775;28;20392;-74
2023/06/27 04:48:58;;;;;;;6.90;2.75;;;15.10;94.70;;;;;;5002113;28;20354;-73
2023/06/27 04:51:27;;;;;;;6.47;2.80;;;15.10;94.80;;;;;;5008765;28;20210;-73
2023/06/27 04:53:52;;;;;;;7.40;3.30;;;15.20;94.70;;;;;;5010570;28;20038;-73
2023/06/27 04:56:18;;;;;;;7.60;2.83;;;15.20;94.60;;;;;;5000138;28;20045;-73
2023/06/27 04:58:43;;;;;;;9.15;3.00;;;15.10;94.40;;;;;;5002464;28;20124;-73
2023/06/27 05:01:09;;;;;;;6.57;2.45;;;15.10;94.30;;;;;;4994456;28;20042;-73
2023/06/27 05:03:37;;;;;;;5.35;2.17;;;15.10;93.80;;;;;;4992660;28;20026;-73
2023/06/27 05:06:03;;;;;;;7.82;3.10;;;15.10;93.90;;;;;;4989523;28;20026;-73
2023/06/27 05:08:29;;;;;;;7.47;2.90;;;15.10;93.40;;;;;;4996546;28;20036;-74
2023/06/27 05:10:55;;;;;;;8.27;2.70;;;15.10;93.50;;;;;;4995786;28;20478;-73
2023/06/27 05:13:20;;;;;;;5.78;2.65;;;15.10;93.40;;;;;;4998453;28;20030;-73
2023/06/27 05:15:46;;;;;;;7.38;2.72;;;15.20;93.40;;;;;;4996544;28;20093;-73
2023/06/27 05:18:13;;;;;;;8.02;3.15;;;15.30;93.90;;;;;;4998505;28;20026;-73
2023/06/27 05:20:42;;;;;;;9.18;3.10;;;15.40;93.80;;;;;;4995968;28;20093;-73
2023/06/27 05:23:08;;;;;;;7.53;2.85;;;15.50;94.10;;;;;;4994727;28;20026;-73
2023/06/27 05:25:40;;;;;;;5.30;2.35;;;15.50;94.30;;;;;;4999073;28;20029;-73
2023/06/27 05:28:06;;;;;;;7.85;2.78;;;15.60;94.20;;;;;;4998294;28;20042;-73
2023/06/27 05:30:33;;;;;;;6.20;2.58;;;15.80;94.20;;;;;;4998116;28;20026;-74
2023/06/27 05:32:59;;;;;;;6.35;2.60;;;15.90;93.90;;;;;;4997494;28;20386;-73
2023/06/27 05:35:24;;;;;;;7.30;2.90;;;16.10;93.90;;;;;;4998755;28;20046;-73
2023/06/27 05:37:50;;;;;;;7.35;2.72;;;16.30;93.40;;;;;;4995650;28;20022;-73
2023/06/27 05:40:16;;;;;;;7.00;2.65;;;16.40;92.80;;;;;;4996452;28;20101;-73
2023/06/27 05:42:42;;;;;;;6.80;2.88;;;16.50;92.20;;;;;;5012985;28;20065;-73
2023/06/27 05:45:09;;;;;;;6.10;2.78;;;16.60;92.50;;;;;;5010265;28;20033;-73
2023/06/27 05:47:34;;;;;;;6.40;2.60;;;16.80;92.40;;;;;;5017189;28;20037;-74
2023/06/27 05:50:00;;;;;;;8.88;2.60;;;17.00;91.80;;;;;;5016625;28;20033;-73
2023/06/27 05:52:26;;;;;;;8.55;3.03;;;17.10;90.30;;;;;;5016173;28;20052;-73
2023/06/27 05:54:52;;;;;;;6.53;2.65;;;17.20;87.60;;;;;;5015881;28;20501;-73
2023/06/27 05:57:18;;;;;;;15.00;2.80;;;17.30;85.90;;;;;;5014983;28;20037;-73
2023/06/27 05:59:44;;;;;;;8.15;2.75;;;17.40;85.00;;;;;;5016267;28;20097;-73
2023/06/27 06:02:10;;;;;;;8.70;2.60;;;17.60;85.60;;;;;;4997213;28;20124;-73
2023/06/27 06:04:36;;;;;;;7.00;2.63;;;17.80;85.00;;;;;;5017005;28;20041;-73
2023/06/27 06:07:03;;;;;;;6.68;2.70;;;18.10;84.50;;;;;;5014004;28;20022;-74
2023/06/27 06:09:30;;;;;;;7.30;2.53;;;18.30;84.20;;;;;;4999898;28;20371;-73
2023/06/27 06:11:56;;;;;;;7.75;2.70;;;18.40;83.20;;;;;;5016701;28;20030;-73
2023/06/27 06:14:21;;;;;;;12.95;3.03;;;18.50;84.30;;;;;;5017298;28;20036;-73
2023/06/27 06:16:47;;;;;;;7.97;3.03;;;18.60;82.80;;;;;;5017451;28;20030;-73
2023/06/27 06:19:13;;;;;;;7.30;2.55;;;18.50;83.40;;;;;;5012996;28;20036;-73
2023/06/27 06:21:38;;;;;;;10.35;2.92;;;18.60;82.70;;;;;;5003213;28;20097;-74
2023/06/27 06:24:04;;;;;;;9.05;3.15;;;18.70;82.50;;;;;;5015868;28;20034;-74
2023/06/27 06:26:30;;;;;;;10.00;2.85;;;19.00;81.80;;;;;;4998162;28;20415;-74
2023/06/27 06:28:55;;;;;;;8.73;2.55;;;18.70;80.20;;;;;;4997844;28;20034;-73
2023/06/27 06:31:23;;;;;;;7.97;2.63;;;18.40;81.20;;;;;;4997768;28;20069;-74
2023/06/27 06:33:49;;;;;;;8.73;2.92;;;18.50;80.60;;;;;;4997905;28;20037;-73
2023/06/27 06:36:15;;;;;;;9.40;2.60;;;18.90;79.80;;;;;;4997977;28;20026;-73
2023/06/27 06:38:40;;;;;;;8.70;2.50;;;19.10;79.40;;;;;;5017495;28;20026;-71
2023/06/27 06:41:06;;;;;;;8.52;2.78;;;19.10;77.80;;;;;;5015273;28;20064;-72
2023/06/27 06:43:32;;;;;;;8.30;3.17;;;19.20;78.40;;;;;;5016676;28;20025;-72
2023/06/27 06:45:58;;;;;;;6.63;2.55;;;19.30;79.60;;;;;;5016371;28;20030;-73
2023/06/27 06:48:24;;;;;;;6.68;2.58;;;19.50;79.10;;;;;;5011435;28;20042;-73
2023/06/27 06:50:52;;;;;;;7.72;2.83;;;19.60;76.30;;;;;;5011864;28;20095;-75
2023/06/27 06:53:19;;;;;;;7.88;2.70;;;19.50;77.50;;;;;;5015346;28;20326;-73
2023/06/27 06:55:44;;;;;;;11.70;3.00;;;19.30;77.40;;;;;;5017098;28;20022;-72
2023/06/27 06:58:10;;;;;;;7.00;2.60;;;19.50;77.20;;;;;;5016987;28;20014;-73
2023/06/27 07:00:36;;;;;;;9.20;3.05;;;19.60;76.70;;;;;;5016695;28;20117;-74
2023/06/27 07:03:03;;;;;;;7.15;2.75;;;19.80;76.80;;;;;;5017082;28;20021;-73
2023/06/27 07:05:29;;;;;;;8.95;2.50;;;19.80;77.20;;;;;;5016816;28;20423;-72
2023/06/27 07:07:55;;;;;;;7.50;2.53;;;19.60;77.00;;;;;;5014825;28;20083;-73
2023/06/27 07:10:20;;;;;;;9.77;3.13;;;19.50;77.60;;;;;;5016887;28;20026;-73
2023/06/27 07:12:46;;;;;;;8.73;3.10;;;19.60;76.90;;;;;;5016773;28;20029;-72
2023/06/27 07:15:12;;;;;;;7.65;2.85;;;19.60;76.20;;;;;;5015819;28;20409;-73
2023/06/27 07:17:37;;;;;;;6.35;2.75;;;19.60;76.40;;;;;;5014975;28;20079;-73
2023/06/27 07:20:04;;;;;;;9.20;2.85;;;19.40;77.00;;;;;;5016729;28;20126;-73
2023/06/27 07:22:29;;;;;;;8.38;3.03;;;19.20;77.00;;;;;;5015673;28;20025;-73
2023/06/27 07:24:55;;;;;;;7.13;3.03;;;19.60;77.10;;;;;;4999259;28;20427;-74
2023/06/27 07:27:20;;;;;;;8.65;2.60;;;20.00;75.90;;;;;;5016697;28;20521;-73
2023/06/27 07:29:46;;;;;;;7.35;2.97;;;20.70;75.70;;;;;;5015064;28;20038;-73
2023/06/27 07:32:12;;;;;;;8.93;3.08;;;21.10;72.20;;;;;;4999108;28;20026;-72
2023/06/27 07:34:39;;;;;;;8.88;2.45;;;21.30;71.50;;;;;;5016559;28;20104;-73
2023/06/27 07:37:06;;;;;;;6.22;2.65;;;22.00;71.20;;;;;;5015220;28;20026;-73
2023/06/27 07:39:31;;;;;;;8.55;3.00;;;22.40;69.20;;;;;;5016491;28;20029;-74
2023/06/27 07:41:57;;;;;;;11.73;2.90;;;22.40;68.50;;;;;;5016189;28;20057;-73
2023/06/27 07:44:23;;;;;;;6.90;2.63;;;22.10;70.10;;;;;;5015405;28;20034;-73
2023/06/27 07:46:48;;;;;;;8.90;2.97;;;21.60;69.90;;;;;;5014270;28;20415;-73
2023/06/27 07:49:15;;;;;;;10.55;2.40;;;21.80;69.70;;;;;;5015354;28;20077;-73
2023/06/27 07:51:49;;;;;;;8.95;2.55;;;21.90;69.10;;;;;;5015196;28;20299;-73
2023/06/27 07:54:14;;;;;;;8.30;3.00;;;22.50;67.40;;;;;;5016150;28;20441;-73
2023/06/27 07:56:40;;;;;;;8.07;2.58;;;22.90;66.80;;;;;;5016068;28;20034;-73
2023/06/27 07:59:07;;;;;;;7.30;2.47;;;23.10;67.30;;;;;;5015930;28;20026;-73
2023/06/27 08:01:33;;;;;;;10.40;2.42;;;23.70;66.40;;;;;;5015525;28;20026;-72
2023/06/27 08:03:59;;;;;;;9.18;2.72;;;23.70;66.10;;;;;;5015551;28;20025;-73
2023/06/27 08:06:24;;;;;;;6.68;2.58;;;23.80;66.00;;;;;;5013255;28;20022;-73
2023/06/27 08:08:50;;;;;;;9.57;2.60;;;24.00;65.20;;;;;;5015401;28;20026;-73
2023/06/27 08:11:16;;;;;;;5.85;2.17;;;24.40;64.50;;;;;;5015924;28;20033;-74
2023/06/27 08:13:41;;;;;;;4.65;2.28;;;24.50;63.90;;;;;;5015784;28;20026;-72
2023/06/27 08:16:10;;;;;;;5.80;2.45;;;24.10;65.50;;;;;;5015969;28;20500;-72
2023/06/27 08:18:38;;;;;;;9.50;2.60;;;23.90;64.30;;;;;;5015964;28;20038;-73
2023/06/27 08:21:04;;;;;;;9.13;2.88;;;24.60;64.40;;;;;;5014801;28;20030;-73
2023/06/27 08:23:32;;;;;;;7.35;2.38;;;25.30;62.70;;;;;;5015235;28;20030;-73
2023/06/27 08:25:58;;;;;;;6.53;2.67;;;25.60;63.70;;;;;;5015695;28;20034;-73
2023/06/27 08:28:24;;;;;;;5.82;2.38;;;26.10;60.80;;;;;;5015797;28;20026;-73
2023/06/27 08:30:49;;;;;;;9.20;2.47;;;25.80;61.50;;;;;;5015884;28;20120;-73
2023/06/27 08:33:15;;;;;;;8.70;2.42;;;25.50;62.20;;;;;;5015856;28;20084;-73
2023/06/27 08:35:40;;;;;;;6.75;2.60;;;25.30;61.20;;;;;;5014066;28;20030;-73
2023/06/27 08:38:06;;;;;;;5.55;2.40;;;25.70;61.10;;;;;;5014039;28;20080;-73
2023/06/27 08:40:36;;;;;;;7.75;2.17;;;26.40;59.40;;;;;;5015810;28;20387;-74
2023/06/27 08:43:02;;;;;;;6.60;2.50;;;26.70;59.40;;;;;;5015613;28;20132;-72
2023/06/27 08:45:27;;;;;;;9.13;2.53;;;26.90;58.70;;;;;;5014704;28;20069;-72
2023/06/27 08:47:53;;;;;;;7.38;2.67;;;26.60;58.00;;;;;;5015768;28;20030;-72
2023/06/27 08:50:21;;;;;;;8.02;2.30;;;26.20;59.20;;;;;;5015575;28;20036;-73
2023/06/27 08:52:57;;;;;;;6.38;2.50;;;26.70;58.70;;;;;;5014628;28;20037;-73
2023/06/27 08:55:29;;;;;;;9.25;2.45;;;26.60;58.20;;;;;;5015612;28;20026;-73
2023/06/27 08:57:57;;;;;;;9.52;3.13;;;26.80;58.50;;;;;;4997975;28;20030;-73
2023/06/27 09:00:26;;;;;;;8.38;3.33;;;26.00;58.80;;;;;;4996011;28;20381;-73
2023/06/27 09:02:54;;;;;;;8.93;2.70;;;24.00;62.00;;;;;;4996073;28;20023;-73
2023/06/27 09:05:20;;;;;;;6.43;2.53;;;23.00;64.60;;;;;;4996014;28;20121;-73
2023/06/27 09:07:45;;;;;;;9.68;2.85;;;23.30;64.70;;;;;;4994769;28;20030;-73
2023/06/27 09:10:13;;;;;;;8.02;3.10;;;24.30;62.60;;;;;;4995840;28;20042;-72
2023/06/27 09:12:41;;;;;;;7.15;2.60;;;24.60;60.30;;;;;;4995847;28;20034;-73
2023/06/27 09:15:07;;;;;;;8.65;2.72;;;25.00;60.90;;;;;;4999389;28;20053;-74
2023/06/27 09:17:32;;;;;;;6.88;2.58;;;25.60;59.40;;;;;;5017303;28;20026;-73
2023/06/27 09:19:58;;;;;;;8.25;2.47;;;26.60;58.70;;;;;;5019041;28;20025;-73
2023/06/27 09:22:24;;;;;;;7.95;2.38;;;28.10;54.90;;;;;;5016378;28;20029;-73
2023/06/27 09:24:49;;;;;;;6.93;2.40;;;29.10;53.50;;;;;;5017919;28;20445;-73
2023/06/27 09:27:34;;;;;;;11.20;2.83;;;29.60;53.00;;;;;;5018730;28;20030;-73
2023/06/27 09:30:01;;;;;;;9.05;2.75;;;28.70;54.50;;;;;;5018598;28;20160;-74
2023/06/27 09:32:27;;;;;;;7.45;2.58;;;27.20;56.60;;;;;;5018609;28;20026;-73
2023/06/27 09:34:55;;;;;;;6.57;2.60;;;26.00;59.00;;;;;;5018642;28;20419;-73
2023/06/27 09:37:32;;;;;;;8.38;2.55;;;25.60;58.60;;;;;;5017260;28;20104;-73
2023/06/27 09:39:58;;;;;;;7.38;2.67;;;25.00;59.40;;;;;;5017873;28;20045;-73
2023/06/27 09:42:23;;;;;;;10.65;3.00;;;25.50;58.50;;;;;;5018282;28;20382;-73
2023/06/27 09:44:49;;;;;;;8.63;2.78;;;25.50;58.00;;;;;;5018297;28;20076;-73
2023/06/27 09:47:18;;;;;;;8.57;2.80;;;26.30;58.00;;;;;;5018396;28;20034;-73
2023/06/27 09:49:43;;;;;;;7.65;2.55;;;27.10;56.50;;;;;;5018231;28;20065;-73
2023/06/27 09:52:12;;;;;;;6.50;2.25;;;26.20;55.80;;;;;;5017225;28;20034;-73
2023/06/27 09:54:43;;;;;;;8.82;2.58;;;26.00;55.30;;;;;;5017251;28;20034;-73
2023/06/27 09:57:13;;;;;;;6.82;2.58;;;25.50;56.80;;;;;;5018018;28;20029;-73
2023/06/27 09:59:38;;;;;;;8.40;2.25;;;24.90;58.60;;;;;;5000898;28;20296;-73
2023/06/27 10:02:04;;;;;;;7.53;2.53;;;24.60;59.40;;;;;;5017862;28;20079;-73
2023/06/27 10:04:33;;;;;;;7.75;2.50;;;24.80;58.10;;;;;;4999739;28;20026;-73
2023/06/27 10:06:59;;;;;;;4.90;2.13;;;24.70;59.40;;;;;;5015572;28;20037;-73
2023/06/27 10:09:24;;;;;;;6.57;2.20;;;24.60;58.90;;;;;;5017905;28;20029;-73
2023/06/27 10:11:50;;;;;;;9.43;2.50;;;24.80;58.20;;;;;;5018112;28;20104;-73
2023/06/27 10:14:16;;;;;;;6.85;2.38;;;25.20;57.80;;;;;;5018013;28;20033;-74
2023/06/27 10:16:43;;;;;;;9.38;2.10;;;25.90;56.40;;;;;;5017599;28;20062;-73
2023/06/27 10:19:09;;;;;;;7.75;2.38;;;26.50;55.70;;;;;;5017891;28;20030;-73
2023/06/27 10:21:35;;;;;;;7.45;2.60;;;26.10;56.80;;;;;;5016011;28;20117;-73
2023/06/27 10:24:02;;;;;;;6.63;2.08;;;25.90;57.90;;;;;;5016888;28;20415;-73
2023/06/27 10:26:28;;;;;;;8.20;2.33;;;26.50;56.40;;;;;;5017469;28;20076;-73
2023/06/27 10:28:54;;;;;;;5.18;2.13;;;27.10;55.10;;;;;;5017752;28;20386;-73
2023/06/27 10:31:45;;;;;;;6.22;2.22;;;27.00;55.10;;;;;;5017492;28;20022;-72
2023/06/27 10:34:24;;;;;;;4.65;1.98;;;26.70;54.20;;;;;;5017632;28;20319;-73
2023/06/27 10:37:01;;;;;;;8.10;1.98;;;25.90;55.50;;;;;;5016126;28;20030;-72
2023/06/27 10:39:33;;;;;;;5.43;2.00;;;25.70;56.60;;;;;;5016073;28;20410;-73
2023/06/27 10:42:04;;;;;;;5.45;2.25;;;26.30;57.40;;;;;;5016385;28;20558;-73
2023/06/27 10:44:30;;;;;;;8.30;2.50;;;25.90;55.20;;;;;;5017169;28;20033;-73
2023/06/27 10:47:14;;;;;;;6.32;2.28;;;25.30;58.00;;;;;;5000044;28;20021;-74
2023/06/27 10:49:40;;;;;;;6.50;2.35;;;25.10;58.10;;;;;;5017262;28;20112;-73
2023/06/27 10:52:10;;;;;;;5.25;2.10;;;25.20;58.00;;;;;;4998574;28;20633;-74
2023/06/27 10:54:41;;;;;;;5.93;2.22;;;25.20;57.70;;;;;;5015683;28;20388;-73
2023/06/27 10:57:06;;;;;;;6.38;2.40;;;25.20;57.50;;;;;;5016298;28;20042;-72
2023/06/27 10:59:34;;;;;;;5.80;2.35;;;24.30;59.00;;;;;;5017082;28;20318;-72
2023/06/27 11:02:13;;;;;;;6.72;2.50;;;24.30;58.20;;;;;;4999662;28;20050;-72
2023/06/27 11:04:41;;;;;;;6.18;2.20;;;24.90;58.40;;;;;;5016881;28;20061;-72
2023/06/27 11:07:19;;;;;;;7.95;2.70;;;25.30;56.80;;;;;;5015743;28;20438;-76
2023/06/27 11:09:55;;;;;;;6.43;2.13;;;25.70;57.10;;;;;;4999532;28;20064;-73
2023/06/27 11:12:21;;;;;;;8.65;3.25;;;26.00;56.80;;;;;;5015942;28;20434;-73
2023/06/27 11:14:53;;;;;;;7.10;2.95;;;25.70;54.80;;;;;;5016700;28;20161;-73
2023/06/27 11:17:19;;;;;;;6.85;2.65;;;25.20;55.70;;;;;;5016564;28;20022;-73
2023/06/27 11:19:48;;;;;;;7.47;2.88;;;24.90;58.00;;;;;;5016603;28;20296;-73
2023/06/27 11:22:14;;;;;;;8.32;2.53;;;24.80;57.30;;;;;;4998085;28;20025;-73
2023/06/27 11:24:40;;;;;;;9.85;2.58;;;24.70;57.60;;;;;;5015847;28;20331;-72
2023/06/27 11:27:07;;;;;;;5.97;2.38;;;25.40;57.00;;;;;;5016508;28;20018;-73
2023/06/27 11:29:36;;;;;;;6.10;2.45;;;25.90;56.80;;;;;;5015805;28;20108;-73
2023/06/27 11:32:02;;;;;;;6.80;2.38;;;26.10;55.80;;;;;;5016357;28;20032;-73
2023/06/27 11:34:28;;;;;;;6.88;2.20;;;26.00;55.50;;;;;;5015502;28;20037;-73
2023/06/27 11:36:55;;;;;;;7.35;2.67;;;26.70;54.60;;;;;;5014487;28;20033;-73
2023/06/27 11:39:21;;;;;;;7.88;2.58;;;26.90;54.60;;;;;;5016352;28;20101;-73
2023/06/27 11:41:47;;;;;;;9.40;2.83;;;26.00;56.70;;;;;;5016314;28;20037;-73
2023/06/27 11:44:15;;;;;;;7.20;2.40;;;25.10;58.10;;;;;;5016286;28;20100;-73
2023/06/27 11:46:50;;;;;;;6.78;2.50;;;24.90;58.60;;;;;;5016242;28;20092;-73
2023/06/27 11:49:16;;;;;;;7.85;2.60;;;24.60;58.50;;;;;;5015703;28;20426;-73
2023/06/27 11:51:42;;;;;;;6.28;2.28;;;24.60;58.90;;;;;;5015059;28;20037;-74
2023/06/27 11:54:08;;;;;;;5.70;2.20;;;25.20;57.00;;;;;;5016228;28;20037;-73
2023/06/27 11:56:43;;;;;;;5.85;2.17;;;25.90;56.90;;;;;;5015972;28;20423;-73
2023/06/27 11:59:09;;;;;;;5.72;2.20;;;25.90;57.50;;;;;;5016081;28;20393;-72
2023/06/27 12:01:42;;;;;;;6.88;2.20;;;26.40;56.00;;;;;;5016232;28;20034;-72
2023/06/27 12:04:15;;;;;;;6.55;2.30;;;26.10;57.10;;;;;;4997788;28;20075;-73
2023/06/27 12:06:42;;;;;;;5.57;2.55;;;26.30;57.30;;;;;;5014824;28;20045;-73
2023/06/27 12:09:18;;;;;;;7.97;2.70;;;26.50;56.70;;;;;;5016114;28;20155;-73
2023/06/27 12:11:43;;;;;;;8.60;2.30;;;26.10;56.40;;;;;;4997615;28;20045;-74
2023/06/27 12:14:09;;;;;;;7.88;3.00;;;25.90;56.80;;;;;;5015326;28;20030;-73
2023/06/27 12:16:35;;;;;;;10.98;2.35;;;25.70;56.40;;;;;;5016008;28;20029;-73
2023/06/27 12:19:10;;;;;;;6.22;1.83;;;25.50;58.10;;;;;;5015770;28;20057;-73
2023/06/27 12:21:36;;;;;;;6.18;2.38;;;26.50;55.70;;;;;;5014718;28;20014;-73
2023/06/27 12:24:04;;;;;;;7.35;2.35;;;27.20;54.90;;;;;;5015802;28;20034;-73
2023/06/27 12:26:29;;;;;;;5.70;2.00;;;28.30;54.10;;;;;;5015796;28;20022;-73
2023/06/27 12:29:02;;;;;;;6.45;2.28;;;29.80;53.80;;;;;;5014847;28;20095;-73
2023/06/27 12:31:28;;;;;;;6.32;2.20;;;31.20;49.50;;;;;;5015114;28;20037;-73
2023/06/27 12:33:54;;;;;;;6.32;2.40;;;29.90;50.90;;;;;;5009210;28;20338;-73
2023/06/27 12:36:21;;;;;;;7.22;2.80;;;29.10;50.70;;;;;;5013740;28;20054;-73
2023/06/27 12:38:50;;;;;;;8.80;2.22;;;28.20;52.40;;;;;;5015816;28;20318;-73
2023/06/27 12:41:21;;;;;;;7.93;2.35;;;28.30;52.30;;;;;;5015601;28;20064;-73
2023/06/27 12:43:47;;;;;;;7.53;2.40;;;27.80;52.40;;;;;;5015806;28;20022;-72
2023/06/27 12:46:15;;;;;;;7.53;2.33;;;27.60;54.00;;;;;;5015360;28;20044;-73